sensor_id;sensor_type;location;lat;lon;timestamp;temperature;humidity
1381;DHT22;684;48.342;10.096;2023-09-07T00:00:37;17.80;18.30
1381;DHT22;684;48.342;10.096;2023-09-07T00:03:04;17.80;18.40
1381;DHT22;684;48.342;10.096;2023-09-07T00:05:33;17.80;18.80
1381;DHT22;684;48.342;10.096;2023-09-07T00:08:00;17.70;18.80
1381;DHT22;684;48.342;10.096;2023-09-07T00:10:27;17.70;18.80
1381;DHT22;684;48.342;10.096;2023-09-07T00:12:53;17.70;19.10
1381;DHT22;684;48.342;10.096;2023-09-07T00:15:20;17.60;19.00
1381;DHT22;684;48.342;10.096;2023-09-07T00:17:47;17.60;19.20
1381;DHT22;684;48.342;10.096;2023-09-07T00:20:14;17.60;19.10
1381;DHT22;684;48.342;10.096;2023-09-07T00:22:42;17.60;19.10
1381;DHT22;684;48.342;10.096;2023-09-07T00:25:09;17.60;19.20
1381;DHT22;684;48.342;10.096;2023-09-07T00:27:36;17.60;19.20
1381;DHT22;684;48.342;10.096;2023-09-07T00:30:03;17.50;19.40
1381;DHT22;684;48.342;10.096;2023-09-07T00:32:32;17.50;19.50
1381;DHT22;684;48.342;10.096;2023-09-07T00:34:58;17.50;19.70
1381;DHT22;684;48.342;10.096;2023-09-07T00:37:25;17.40;19.60
1381;DHT22;684;48.342;10.096;2023-09-07T00:39:53;17.40;19.60
1381;DHT22;684;48.342;10.096;2023-09-07T00:42:20;17.40;19.70
1381;DHT22;684;48.342;10.096;2023-09-07T00:44:47;17.40;19.60
1381;DHT22;684;48.342;10.096;2023-09-07T00:47:14;17.40;19.70
1381;DHT22;684;48.342;10.096;2023-09-07T00:49:40;17.40;19.70
1381;DHT22;684;48.342;10.096;2023-09-07T00:52:08;17.30;19.90
1381;DHT22;684;48.342;10.096;2023-09-07T00:54:35;17.30;20.00
1381;DHT22;684;48.342;10.096;2023-09-07T00:57:05;17.30;20.10
1381;DHT22;684;48.342;10.096;2023-09-07T00:59:32;17.20;20.30
1381;DHT22;684;48.342;10.096;2023-09-07T01:01:59;17.20;20.00
1381;DHT22;684;48.342;10.096;2023-09-07T01:04:26;17.20;20.20
1381;DHT22;684;48.342;10.096;2023-09-07T01:06:56;17.20;20.30
1381;DHT22;684;48.342;10.096;2023-09-07T01:09:26;17.20;20.30
1381;DHT22;684;48.342;10.096;2023-09-07T01:11:55;17.20;20.70
1381;DHT22;684;48.342;10.096;2023-09-07T01:14:23;17.20;20.70
1381;DHT22;684;48.342;10.096;2023-09-07T01:16:50;17.10;21.10
1381;DHT22;684;48.342;10.096;2023-09-07T01:19:17;17.10;21.10
1381;DHT22;684;48.342;10.096;2023-09-07T01:21:45;17.10;21.00
1381;DHT22;684;48.342;10.096;2023-09-07T01:24:14;17.10;21.40
1381;DHT22;684;48.342;10.096;2023-09-07T01:26:41;17.00;21.80
1381;DHT22;684;48.342;10.096;2023-09-07T01:29:08;17.00;22.10
1381;DHT22;684;48.342;10.096;2023-09-07T01:31:35;16.90;21.80
1381;DHT22;684;48.342;10.096;2023-09-07T01:34:03;17.00;22.10
1381;DHT22;684;48.342;10.096;2023-09-07T01:36:31;16.90;22.10
1381;DHT22;684;48.342;10.096;2023-09-07T01:39:00;16.90;22.10
1381;DHT22;684;48.342;10.096;2023-09-07T01:41:27;16.90;22.30
1381;DHT22;684;48.342;10.096;2023-09-07T01:43:54;16.90;22.60
1381;DHT22;684;48.342;10.096;2023-09-07T01:46:21;16.80;22.30
1381;DHT22;684;48.342;10.096;2023-09-07T01:48:48;16.80;22.40
1381;DHT22;684;48.342;10.096;2023-09-07T01:51:14;16.80;22.40
1381;DHT22;684;48.342;10.096;2023-09-07T01:53:41;16.80;22.50
1381;DHT22;684;48.342;10.096;2023-09-07T01:56:09;16.80;22.90
1381;DHT22;684;48.342;10.096;2023-09-07T01:58:36;16.80;23.30
1381;DHT22;684;48.342;10.096;2023-09-07T02:01:02;16.70;23.50
1381;DHT22;684;48.342;10.096;2023-09-07T02:03:29;16.70;23.90
1381;DHT22;684;48.342;10.096;2023-09-07T02:05:56;16.70;24.40
1381;DHT22;684;48.342;10.096;2023-09-07T02:08:22;16.70;24.40
1381;DHT22;684;48.342;10.096;2023-09-07T02:10:49;16.70;24.50
1381;DHT22;684;48.342;10.096;2023-09-07T02:13:17;16.60;24.90
1381;DHT22;684;48.342;10.096;2023-09-07T02:15:44;16.60;24.80
1381;DHT22;684;48.342;10.096;2023-09-07T02:18:10;16.60;25.10
1381;DHT22;684;48.342;10.096;2023-09-07T02:20:37;16.60;25.30
1381;DHT22;684;48.342;10.096;2023-09-07T02:23:08;16.50;25.50
1381;DHT22;684;48.342;10.096;2023-09-07T02:25:34;16.50;25.50
1381;DHT22;684;48.342;10.096;2023-09-07T02:28:01;16.50;25.70
1381;DHT22;684;48.342;10.096;2023-09-07T02:30:29;16.40;25.90
1381;DHT22;684;48.342;10.096;2023-09-07T02:32:56;16.40;26.10
1381;DHT22;684;48.342;10.096;2023-09-07T02:35:23;16.40;26.10
1381;DHT22;684;48.342;10.096;2023-09-07T02:37:49;16.40;26.20
1381;DHT22;684;48.342;10.096;2023-09-07T02:40:16;16.40;26.50
1381;DHT22;684;48.342;10.096;2023-09-07T02:42:43;16.40;26.50
1381;DHT22;684;48.342;10.096;2023-09-07T02:45:10;16.40;26.30
1381;DHT22;684;48.342;10.096;2023-09-07T02:47:38;16.30;26.60
1381;DHT22;684;48.342;10.096;2023-09-07T02:50:06;16.30;26.90
1381;DHT22;684;48.342;10.096;2023-09-07T02:52:33;16.30;27.10
1381;DHT22;684;48.342;10.096;2023-09-07T02:54:59;16.20;27.20
1381;DHT22;684;48.342;10.096;2023-09-07T02:57:26;16.20;27.40
1381;DHT22;684;48.342;10.096;2023-09-07T02:59:53;16.20;27.80
1381;DHT22;684;48.342;10.096;2023-09-07T03:02:20;16.10;28.00
1381;DHT22;684;48.342;10.096;2023-09-07T03:04:52;16.10;28.10
1381;DHT22;684;48.342;10.096;2023-09-07T03:07:19;16.10;28.40
1381;DHT22;684;48.342;10.096;2023-09-07T03:09:46;16.00;28.40
1381;DHT22;684;48.342;10.096;2023-09-07T03:12:12;16.00;28.60
1381;DHT22;684;48.342;10.096;2023-09-07T03:14:42;16.00;28.80
1381;DHT22;684;48.342;10.096;2023-09-07T03:17:09;16.00;29.00
1381;DHT22;684;48.342;10.096;2023-09-07T03:19:36;16.00;29.20
1381;DHT22;684;48.342;10.096;2023-09-07T03:22:04;15.90;29.50
1381;DHT22;684;48.342;10.096;2023-09-07T03:24:31;15.90;29.50
1381;DHT22;684;48.342;10.096;2023-09-07T03:26:58;15.90;29.60
1381;DHT22;684;48.342;10.096;2023-09-07T03:29:25;15.90;30.00
1381;DHT22;684;48.342;10.096;2023-09-07T03:31:52;15.90;29.70
1381;DHT22;684;48.342;10.096;2023-09-07T03:34:18;15.90;29.90
1381;DHT22;684;48.342;10.096;2023-09-07T03:36:46;15.90;29.70
1381;DHT22;684;48.342;10.096;2023-09-07T03:39:14;15.80;29.90
1381;DHT22;684;48.342;10.096;2023-09-07T03:41:41;15.90;29.80
1381;DHT22;684;48.342;10.096;2023-09-07T03:44:07;15.80;30.00
1381;DHT22;684;48.342;10.096;2023-09-07T03:46:34;15.80;29.80
1381;DHT22;684;48.342;10.096;2023-09-07T03:49:01;15.80;29.80
1381;DHT22;684;48.342;10.096;2023-09-07T03:51:27;15.80;29.70
1381;DHT22;684;48.342;10.096;2023-09-07T03:53:54;15.80;29.80
1381;DHT22;684;48.342;10.096;2023-09-07T03:56:22;15.80;29.70
1381;DHT22;684;48.342;10.096;2023-09-07T03:58:49;15.80;29.60
1381;DHT22;684;48.342;10.096;2023-09-07T04:01:16;15.80;29.50
1381;DHT22;684;48.342;10.096;2023-09-07T04:03:42;15.80;29.60
1381;DHT22;684;48.342;10.096;2023-09-07T04:06:09;15.80;29.80
1381;DHT22;684;48.342;10.096;2023-09-07T04:08:37;15.80;29.80
1381;DHT22;684;48.342;10.096;2023-09-07T04:11:04;15.90;29.90
1381;DHT22;684;48.342;10.096;2023-09-07T04:13:32;15.90;29.80
1381;DHT22;684;48.342;10.096;2023-09-07T04:15:59;15.80;30.10
1381;DHT22;684;48.342;10.096;2023-09-07T04:18:25;15.80;30.00
1381;DHT22;684;48.342;10.096;2023-09-07T04:20:52;15.80;29.70
1381;DHT22;684;48.342;10.096;2023-09-07T04:23:19;15.80;29.80
1381;DHT22;684;48.342;10.096;2023-09-07T04:25:45;15.80;29.90
1381;DHT22;684;48.342;10.096;2023-09-07T04:28:13;15.80;30.20
1381;DHT22;684;48.342;10.096;2023-09-07T04:30:41;15.70;30.60
1381;DHT22;684;48.342;10.096;2023-09-07T04:33:08;15.70;30.10
1381;DHT22;684;48.342;10.096;2023-09-07T04:35:35;15.70;30.30
1381;DHT22;684;48.342;10.096;2023-09-07T04:38:02;15.70;30.50
1381;DHT22;684;48.342;10.096;2023-09-07T04:40:29;15.70;30.30
1381;DHT22;684;48.342;10.096;2023-09-07T04:42:56;15.80;30.20
1381;DHT22;684;48.342;10.096;2023-09-07T04:45:22;15.70;30.40
1381;DHT22;684;48.342;10.096;2023-09-07T04:47:51;15.70;30.40
1381;DHT22;684;48.342;10.096;2023-09-07T04:50:17;15.70;30.80
1381;DHT22;684;48.342;10.096;2023-09-07T04:52:44;15.70;30.60
1381;DHT22;684;48.342;10.096;2023-09-07T04:55:11;15.70;30.50
1381;DHT22;684;48.342;10.096;2023-09-07T04:57:38;15.70;30.40
1381;DHT22;684;48.342;10.096;2023-09-07T05:00:05;15.70;30.20
1381;DHT22;684;48.342;10.096;2023-09-07T05:02:33;15.70;30.20
1381;DHT22;684;48.342;10.096;2023-09-07T05:05:06;15.70;30.10
1381;DHT22;684;48.342;10.096;2023-09-07T05:07:32;15.70;30.30
1381;DHT22;684;48.342;10.096;2023-09-07T05:09:59;15.70;30.20
1381;DHT22;684;48.342;10.096;2023-09-07T05:12:26;15.80;30.40
1381;DHT22;684;48.342;10.096;2023-09-07T05:14:53;16.00;30.20
1381;DHT22;684;48.342;10.096;2023-09-07T05:17:20;16.40;29.00
1381;DHT22;684;48.342;10.096;2023-09-07T05:19:46;16.80;28.10
1381;DHT22;684;48.342;10.096;2023-09-07T05:22:14;17.30;27.00
1381;DHT22;684;48.342;10.096;2023-09-07T05:24:41;17.80;25.50
1381;DHT22;684;48.342;10.096;2023-09-07T05:27:10;18.20;24.40
1381;DHT22;684;48.342;10.096;2023-09-07T05:29:37;18.60;23.10
1381;DHT22;684;48.342;10.096;2023-09-07T05:32:05;19.00;22.10
1381;DHT22;684;48.342;10.096;2023-09-07T05:34:32;19.30;21.30
1381;DHT22;684;48.342;10.096;2023-09-07T05:36:59;19.50;20.20
1381;DHT22;684;48.342;10.096;2023-09-07T05:39:27;19.70;19.70
1381;DHT22;684;48.342;10.096;2023-09-07T05:41:54;19.90;19.40
1381;DHT22;684;48.342;10.096;2023-09-07T05:44:20;20.10;18.90
1381;DHT22;684;48.342;10.096;2023-09-07T05:46:47;20.20;18.80
1381;DHT22;684;48.342;10.096;2023-09-07T05:49:14;20.30;18.30
1381;DHT22;684;48.342;10.096;2023-09-07T05:51:40;20.50;17.90
1381;DHT22;684;48.342;10.096;2023-09-07T05:54:07;20.60;17.30
1381;DHT22;684;48.342;10.096;2023-09-07T05:56:35;20.80;16.40
1381;DHT22;684;48.342;10.096;2023-09-07T05:59:02;21.30;15.60
1381;DHT22;684;48.342;10.096;2023-09-07T06:01:29;21.80;14.40
1381;DHT22;684;48.342;10.096;2023-09-07T06:03:55;22.20;13.20
1381;DHT22;684;48.342;10.096;2023-09-07T06:06:22;22.50;12.40
1381;DHT22;684;48.342;10.096;2023-09-07T06:08:49;22.80;11.70
1381;DHT22;684;48.342;10.096;2023-09-07T06:11:16;23.30;10.80
1381;DHT22;684;48.342;10.096;2023-09-07T06:13:44;24.10;9.10
1381;DHT22;684;48.342;10.096;2023-09-07T06:16:11;25.20;6.90
1381;DHT22;684;48.342;10.096;2023-09-07T06:18:38;26.20;4.20
1381;DHT22;684;48.342;10.096;2023-09-07T06:21:05;27.20;2.00
1381;DHT22;684;48.342;10.096;2023-09-07T06:23:32;28.40;1.00
1381;DHT22;684;48.342;10.096;2023-09-07T06:25:59;29.40;1.00
1381;DHT22;684;48.342;10.096;2023-09-07T06:28:26;30.40;1.00
1381;DHT22;684;48.342;10.096;2023-09-07T06:30:54;31.30;1.00
1381;DHT22;684;48.342;10.096;2023-09-07T06:33:21;32.40;1.00
1381;DHT22;684;48.342;10.096;2023-09-07T06:35:47;33.20;1.00
1381;DHT22;684;48.342;10.096;2023-09-07T06:38:14;34.10;1.00
1381;DHT22;684;48.342;10.096;2023-09-07T06:40:41;35.20;1.00
1381;DHT22;684;48.342;10.096;2023-09-07T06:43:07;35.90;1.00
1381;DHT22;684;48.342;10.096;2023-09-07T06:45:35;36.40;1.00
1381;DHT22;684;48.342;10.096;2023-09-07T06:48:03;37.20;1.00
1381;DHT22;684;48.342;10.096;2023-09-07T06:50:30;38.10;1.00
1381;DHT22;684;48.342;10.096;2023-09-07T06:52:57;38.90;1.00
1381;DHT22;684;48.342;10.096;2023-09-07T06:55:24;39.80;1.00
1381;DHT22;684;48.342;10.096;2023-09-07T06:57:50;40.80;1.00
1381;DHT22;684;48.342;10.096;2023-09-07T07:00:17;41.40;1.00
1381;DHT22;684;48.342;10.096;2023-09-07T07:02:44;42.20;1.00
1381;DHT22;684;48.342;10.096;2023-09-07T07:05:12;42.90;1.00
1381;DHT22;684;48.342;10.096;2023-09-07T07:07:39;43.60;1.00
1381;DHT22;684;48.342;10.096;2023-09-07T07:10:07;44.30;1.00
1381;DHT22;684;48.342;10.096;2023-09-07T07:12:33;44.80;1.00
1381;DHT22;684;48.342;10.096;2023-09-07T07:15:00;45.30;1.00
1381;DHT22;684;48.342;10.096;2023-09-07T07:17:28;45.90;1.00
1381;DHT22;684;48.342;10.096;2023-09-07T07:19:54;46.30;1.00
1381;DHT22;684;48.342;10.096;2023-09-07T07:22:22;46.90;1.00
1381;DHT22;684;48.342;10.096;2023-09-07T07:24:49;47.40;1.00
1381;DHT22;684;48.342;10.096;2023-09-07T07:27:16;47.10;1.00
1381;DHT22;684;48.342;10.096;2023-09-07T07:29:42;47.30;1.00
1381;DHT22;684;48.342;10.096;2023-09-07T07:32:10;47.60;1.00
1381;DHT22;684;48.342;10.096;2023-09-07T07:34:36;47.90;1.00
1381;DHT22;684;48.342;10.096;2023-09-07T07:37:03;47.70;1.00
1381;DHT22;684;48.342;10.096;2023-09-07T07:39:31;47.50;1.00
1381;DHT22;684;48.342;10.096;2023-09-07T07:41:58;47.60;1.00
1381;DHT22;684;48.342;10.096;2023-09-07T07:44:24;47.60;1.00
1381;DHT22;684;48.342;10.096;2023-09-07T07:46:51;48.10;1.00
1381;DHT22;684;48.342;10.096;2023-09-07T07:49:18;48.20;1.00
1381;DHT22;684;48.342;10.096;2023-09-07T07:51:44;48.20;1.00
1381;DHT22;684;48.342;10.096;2023-09-07T07:54:11;48.40;1.00
1381;DHT22;684;48.342;10.096;2023-09-07T07:56:40;48.80;1.00
1381;DHT22;684;48.342;10.096;2023-09-07T07:59:06;49.00;1.00
1381;DHT22;684;48.342;10.096;2023-09-07T08:01:33;49.50;1.00
1381;DHT22;684;48.342;10.096;2023-09-07T08:04:01;49.60;1.00
1381;DHT22;684;48.342;10.096;2023-09-07T08:06:28;49.70;1.00
1381;DHT22;684;48.342;10.096;2023-09-07T08:08:55;49.70;1.00
1381;DHT22;684;48.342;10.096;2023-09-07T08:11:22;49.30;1.00
1381;DHT22;684;48.342;10.096;2023-09-07T08:13:50;49.00;1.00
1381;DHT22;684;48.342;10.096;2023-09-07T08:16:17;48.80;1.00
1381;DHT22;684;48.342;10.096;2023-09-07T08:18:44;48.60;1.00
1381;DHT22;684;48.342;10.096;2023-09-07T08:21:11;49.00;1.00
1381;DHT22;684;48.342;10.096;2023-09-07T08:23:38;49.50;1.00
1381;DHT22;684;48.342;10.096;2023-09-07T08:26:05;49.80;1.00
1381;DHT22;684;48.342;10.096;2023-09-07T08:28:32;49.70;1.00
1381;DHT22;684;48.342;10.096;2023-09-07T08:31:00;50.10;1.00
1381;DHT22;684;48.342;10.096;2023-09-07T08:33:27;50.60;1.00
1381;DHT22;684;48.342;10.096;2023-09-07T08:35:55;50.90;1.00
1381;DHT22;684;48.342;10.096;2023-09-07T08:38:22;51.50;1.00
1381;DHT22;684;48.342;10.096;2023-09-07T08:40:53;51.30;1.00
1381;DHT22;684;48.342;10.096;2023-09-07T08:43:20;51.10;1.00
1381;DHT22;684;48.342;10.096;2023-09-07T08:45:51;51.60;1.00
1381;DHT22;684;48.342;10.096;2023-09-07T08:48:26;52.10;1.00
1381;DHT22;684;48.342;10.096;2023-09-07T08:50:54;52.90;1.00
1381;DHT22;684;48.342;10.096;2023-09-07T08:53:21;52.90;1.00
1381;DHT22;684;48.342;10.096;2023-09-07T08:55:49;52.10;1.00
1381;DHT22;684;48.342;10.096;2023-09-07T08:58:15;52.00;1.00
1381;DHT22;684;48.342;10.096;2023-09-07T09:00:42;52.60;1.00
1381;DHT22;684;48.342;10.096;2023-09-07T09:03:11;53.00;1.00
1381;DHT22;684;48.342;10.096;2023-09-07T09:05:40;53.20;1.00
1381;DHT22;684;48.342;10.096;2023-09-07T09:08:07;53.40;1.00
1381;DHT22;684;48.342;10.096;2023-09-07T09:10:34;52.80;1.00
1381;DHT22;684;48.342;10.096;2023-09-07T09:13:01;52.00;1.00
1381;DHT22;684;48.342;10.096;2023-09-07T09:15:28;50.80;1.00
1381;DHT22;684;48.342;10.096;2023-09-07T09:17:54;51.30;1.00
1381;DHT22;684;48.342;10.096;2023-09-07T09:20:22;51.80;1.00
1381;DHT22;684;48.342;10.096;2023-09-07T09:22:52;52.50;1.00
1381;DHT22;684;48.342;10.096;2023-09-07T09:25:19;53.00;1.00
1381;DHT22;684;48.342;10.096;2023-09-07T09:27:46;53.20;1.00
1381;DHT22;684;48.342;10.096;2023-09-07T09:30:13;53.40;1.00
1381;DHT22;684;48.342;10.096;2023-09-07T09:32:41;53.30;1.00
1381;DHT22;684;48.342;10.096;2023-09-07T09:35:09;53.20;1.00
1381;DHT22;684;48.342;10.096;2023-09-07T09:37:43;53.60;1.00
1381;DHT22;684;48.342;10.096;2023-09-07T09:40:13;54.00;1.00
1381;DHT22;684;48.342;10.096;2023-09-07T09:42:41;54.60;1.00
1381;DHT22;684;48.342;10.096;2023-09-07T09:45:09;54.70;1.00
1381;DHT22;684;48.342;10.096;2023-09-07T09:47:38;54.70;1.00
1381;DHT22;684;48.342;10.096;2023-09-07T09:50:06;54.80;1.00
1381;DHT22;684;48.342;10.096;2023-09-07T09:52:34;55.20;1.00
1381;DHT22;684;48.342;10.096;2023-09-07T09:55:02;55.30;1.00
1381;DHT22;684;48.342;10.096;2023-09-07T09:57:32;55.50;1.00
1381;DHT22;684;48.342;10.096;2023-09-07T10:00:00;55.50;1.00
1381;DHT22;684;48.342;10.096;2023-09-07T10:02:35;55.20;1.00
1381;DHT22;684;48.342;10.096;2023-09-07T10:05:03;55.30;1.00
1381;DHT22;684;48.342;10.096;2023-09-07T10:07:41;54.70;1.00
1381;DHT22;684;48.342;10.096;2023-09-07T10:10:09;54.50;1.00
1381;DHT22;684;48.342;10.096;2023-09-07T10:12:41;54.40;1.00
1381;DHT22;684;48.342;10.096;2023-09-07T10:15:20;54.00;1.00
1381;DHT22;684;48.342;10.096;2023-09-07T10:17:47;53.60;1.00
1381;DHT22;684;48.342;10.096;2023-09-07T10:20:16;53.50;1.00
1381;DHT22;684;48.342;10.096;2023-09-07T10:22:43;53.60;1.00
1381;DHT22;684;48.342;10.096;2023-09-07T10:25:20;53.60;1.00
1381;DHT22;684;48.342;10.096;2023-09-07T10:27:49;53.20;1.00
1381;DHT22;684;48.342;10.096;2023-09-07T10:30:15;52.90;1.00
1381;DHT22;684;48.342;10.096;2023-09-07T10:32:45;52.90;1.00
1381;DHT22;684;48.342;10.096;2023-09-07T10:35:16;52.90;1.00
1381;DHT22;684;48.342;10.096;2023-09-07T10:37:45;52.90;1.00
1381;DHT22;684;48.342;10.096;2023-09-07T10:40:13;52.80;1.00
1381;DHT22;684;48.342;10.096;2023-09-07T10:42:44;52.70;1.00
1381;DHT22;684;48.342;10.096;2023-09-07T10:45:16;52.80;1.00
1381;DHT22;684;48.342;10.096;2023-09-07T10:47:43;52.60;1.00
1381;DHT22;684;48.342;10.096;2023-09-07T10:50:11;52.20;1.00
1381;DHT22;684;48.342;10.096;2023-09-07T10:52:39;52.00;1.00
1381;DHT22;684;48.342;10.096;2023-09-07T10:55:07;51.70;1.00
1381;DHT22;684;48.342;10.096;2023-09-07T10:57:41;51.40;1.00
1381;DHT22;684;48.342;10.096;2023-09-07T11:00:09;50.80;1.00
1381;DHT22;684;48.342;10.096;2023-09-07T11:02:37;50.60;1.00
1381;DHT22;684;48.342;10.096;2023-09-07T11:05:05;50.10;1.00
1381;DHT22;684;48.342;10.096;2023-09-07T11:07:32;49.20;1.00
1381;DHT22;684;48.342;10.096;2023-09-07T11:09:59;48.00;1.00
1381;DHT22;684;48.342;10.096;2023-09-07T11:12:29;47.30;1.00
1381;DHT22;684;48.342;10.096;2023-09-07T11:14:56;45.90;1.00
1381;DHT22;684;48.342;10.096;2023-09-07T11:17:26;44.10;1.00
1381;DHT22;684;48.342;10.096;2023-09-07T11:19:54;42.30;1.00
1381;DHT22;684;48.342;10.096;2023-09-07T11:22:21;40.70;1.00
1381;DHT22;684;48.342;10.096;2023-09-07T11:24:49;39.20;1.00
1381;DHT22;684;48.342;10.096;2023-09-07T11:27:17;38.00;1.00
1381;DHT22;684;48.342;10.096;2023-09-07T11:29:51;36.80;1.00
1381;DHT22;684;48.342;10.096;2023-09-07T11:32:18;35.90;1.00
1381;DHT22;684;48.342;10.096;2023-09-07T11:34:47;35.10;1.00
1381;DHT22;684;48.342;10.096;2023-09-07T11:37:23;34.60;1.00
1381;DHT22;684;48.342;10.096;2023-09-07T11:39:50;34.10;1.00
1381;DHT22;684;48.342;10.096;2023-09-07T11:42:17;33.80;1.00
1381;DHT22;684;48.342;10.096;2023-09-07T11:44:43;33.20;1.00
1381;DHT22;684;48.342;10.096;2023-09-07T11:47:10;32.70;1.00
1381;DHT22;684;48.342;10.096;2023-09-07T11:49:37;32.30;1.00
1381;DHT22;684;48.342;10.096;2023-09-07T11:52:04;32.10;1.00
1381;DHT22;684;48.342;10.096;2023-09-07T11:54:32;31.90;1.00
1381;DHT22;684;48.342;10.096;2023-09-07T11:56:59;31.70;1.00
1381;DHT22;684;48.342;10.096;2023-09-07T11:59:26;31.40;1.00
1381;DHT22;684;48.342;10.096;2023-09-07T12:01:53;31.20;1.00
1381;DHT22;684;48.342;10.096;2023-09-07T12:04:20;31.00;1.00
1381;DHT22;684;48.342;10.096;2023-09-07T12:06:47;30.80;1.00
1381;DHT22;684;48.342;10.096;2023-09-07T12:09:13;30.70;1.00
1381;DHT22;684;48.342;10.096;2023-09-07T12:11:44;30.60;1.00
1381;DHT22;684;48.342;10.096;2023-09-07T12:14:11;30.40;1.00
1381;DHT22;684;48.342;10.096;2023-09-07T12:16:38;30.30;1.00
1381;DHT22;684;48.342;10.096;2023-09-07T12:19:04;30.20;1.00
1381;DHT22;684;48.342;10.096;2023-09-07T12:21:31;30.00;1.00
1381;DHT22;684;48.342;10.096;2023-09-07T12:23:58;30.00;1.00
1381;DHT22;684;48.342;10.096;2023-09-07T12:26:25;29.80;1.00
1381;DHT22;684;48.342;10.096;2023-09-07T12:28:53;29.70;1.00
1381;DHT22;684;48.342;10.096;2023-09-07T12:31:20;29.60;1.00
1381;DHT22;684;48.342;10.096;2023-09-07T12:33:46;29.30;1.00
1381;DHT22;684;48.342;10.096;2023-09-07T12:36:13;29.30;1.00
1381;DHT22;684;48.342;10.096;2023-09-07T12:38:40;29.10;1.00
1381;DHT22;684;48.342;10.096;2023-09-07T12:41:07;29.20;1.00
1381;DHT22;684;48.342;10.096;2023-09-07T12:43:33;29.00;1.00
1381;DHT22;684;48.342;10.096;2023-09-07T12:46:01;28.80;1.00
1381;DHT22;684;48.342;10.096;2023-09-07T12:48:29;28.70;1.00
1381;DHT22;684;48.342;10.096;2023-09-07T12:50:55;28.60;1.00
1381;DHT22;684;48.342;10.096;2023-09-07T12:53:22;28.60;1.00
1381;DHT22;684;48.342;10.096;2023-09-07T12:55:51;28.60;1.40
1381;DHT22;684;48.342;10.096;2023-09-07T12:58:18;28.50;1.30
1381;DHT22;684;48.342;10.096;2023-09-07T13:00:45;28.50;1.50
1381;DHT22;684;48.342;10.096;2023-09-07T13:03:14;28.40;1.00
1381;DHT22;684;48.342;10.096;2023-09-07T13:05:41;28.30;1.00
1381;DHT22;684;48.342;10.096;2023-09-07T13:08:08;28.30;1.50
1381;DHT22;684;48.342;10.096;2023-09-07T13:10:35;28.30;1.90
1381;DHT22;684;48.342;10.096;2023-09-07T13:13:02;28.20;1.50
1381;DHT22;684;48.342;10.096;2023-09-07T13:15:28;28.20;2.10
1381;DHT22;684;48.342;10.096;2023-09-07T13:17:55;28.30;2.20
1381;DHT22;684;48.342;10.096;2023-09-07T13:20:23;28.20;1.60
1381;DHT22;684;48.342;10.096;2023-09-07T13:22:50;28.20;2.30
1381;DHT22;684;48.342;10.096;2023-09-07T13:25:17;28.20;1.90
1381;DHT22;684;48.342;10.096;2023-09-07T13:27:44;28.10;1.60
1381;DHT22;684;48.342;10.096;2023-09-07T13:30:11;28.10;1.90
1381;DHT22;684;48.342;10.096;2023-09-07T13:32:38;28.10;2.00
1381;DHT22;684;48.342;10.096;2023-09-07T13:35:05;28.00;1.80
1381;DHT22;684;48.342;10.096;2023-09-07T13:37:33;28.10;2.60
1381;DHT22;684;48.342;10.096;2023-09-07T13:40:01;28.10;2.20
1381;DHT22;684;48.342;10.096;2023-09-07T13:42:29;28.10;1.40
1381;DHT22;684;48.342;10.096;2023-09-07T13:44:55;28.00;2.00
1381;DHT22;684;48.342;10.096;2023-09-07T13:47:22;28.00;2.20
1381;DHT22;684;48.342;10.096;2023-09-07T13:49:49;27.90;1.60
1381;DHT22;684;48.342;10.096;2023-09-07T13:52:16;27.90;2.10
1381;DHT22;684;48.342;10.096;2023-09-07T13:54:44;28.00;2.40
1381;DHT22;684;48.342;10.096;2023-09-07T13:57:10;28.10;2.30
1381;DHT22;684;48.342;10.096;2023-09-07T13:59:37;27.90;1.70
1381;DHT22;684;48.342;10.096;2023-09-07T14:02:04;27.90;1.20
1381;DHT22;684;48.342;10.096;2023-09-07T14:04:30;27.80;1.40
1381;DHT22;684;48.342;10.096;2023-09-07T14:06:57;27.80;1.60
1381;DHT22;684;48.342;10.096;2023-09-07T14:09:24;27.80;1.60
1381;DHT22;684;48.342;10.096;2023-09-07T14:11:52;27.70;1.90
1381;DHT22;684;48.342;10.096;2023-09-07T14:14:18;27.70;2.00
1381;DHT22;684;48.342;10.096;2023-09-07T14:16:46;27.70;1.90
1381;DHT22;684;48.342;10.096;2023-09-07T14:19:13;27.60;1.30
1381;DHT22;684;48.342;10.096;2023-09-07T14:21:40;27.60;2.00
1381;DHT22;684;48.342;10.096;2023-09-07T14:24:06;27.50;2.00
1381;DHT22;684;48.342;10.096;2023-09-07T14:26:33;27.50;2.30
1381;DHT22;684;48.342;10.096;2023-09-07T14:29:01;27.50;2.30
1381;DHT22;684;48.342;10.096;2023-09-07T14:31:28;27.50;2.30
1381;DHT22;684;48.342;10.096;2023-09-07T14:33:55;27.50;2.00
1381;DHT22;684;48.342;10.096;2023-09-07T14:36:21;27.50;1.60
1381;DHT22;684;48.342;10.096;2023-09-07T14:38:48;27.50;1.40
1381;DHT22;684;48.342;10.096;2023-09-07T14:41:15;27.40;1.80
1381;DHT22;684;48.342;10.096;2023-09-07T14:43:44;27.40;2.10
1381;DHT22;684;48.342;10.096;2023-09-07T14:46:13;27.40;2.70
1381;DHT22;684;48.342;10.096;2023-09-07T14:48:40;27.40;2.30
1381;DHT22;684;48.342;10.096;2023-09-07T14:51:08;27.30;2.10
1381;DHT22;684;48.342;10.096;2023-09-07T14:53:34;27.30;1.70
1381;DHT22;684;48.342;10.096;2023-09-07T14:56:01;27.30;1.60
1381;DHT22;684;48.342;10.096;2023-09-07T14:58:28;27.30;1.00
1381;DHT22;684;48.342;10.096;2023-09-07T15:00:55;27.20;1.00
1381;DHT22;684;48.342;10.096;2023-09-07T15:03:24;27.20;1.00
1381;DHT22;684;48.342;10.096;2023-09-07T15:05:51;27.20;1.00
1381;DHT22;684;48.342;10.096;2023-09-07T15:08:18;27.20;1.00
1381;DHT22;684;48.342;10.096;2023-09-07T15:10:44;27.20;1.00
1381;DHT22;684;48.342;10.096;2023-09-07T15:13:11;27.20;1.00
1381;DHT22;684;48.342;10.096;2023-09-07T15:15:39;27.20;1.00
1381;DHT22;684;48.342;10.096;2023-09-07T15:18:06;27.10;1.00
1381;DHT22;684;48.342;10.096;2023-09-07T15:20:35;27.10;1.00
1381;DHT22;684;48.342;10.096;2023-09-07T15:23:02;27.00;1.00
1381;DHT22;684;48.342;10.096;2023-09-07T15:25:29;27.00;1.00
1381;DHT22;684;48.342;10.096;2023-09-07T15:27:56;27.00;1.00
1381;DHT22;684;48.342;10.096;2023-09-07T15:30:24;26.90;1.00
1381;DHT22;684;48.342;10.096;2023-09-07T15:32:50;26.90;1.00
1381;DHT22;684;48.342;10.096;2023-09-07T15:35:17;26.90;1.00
1381;DHT22;684;48.342;10.096;2023-09-07T15:37:45;26.90;1.00
1381;DHT22;684;48.342;10.096;2023-09-07T15:40:12;26.90;1.00
1381;DHT22;684;48.342;10.096;2023-09-07T15:42:39;26.80;1.00
1381;DHT22;684;48.342;10.096;2023-09-07T15:45:07;26.80;1.00
1381;DHT22;684;48.342;10.096;2023-09-07T15:47:33;26.80;1.00
1381;DHT22;684;48.342;10.096;2023-09-07T15:50:00;26.80;1.00
1381;DHT22;684;48.342;10.096;2023-09-07T15:52:27;26.80;1.00
1381;DHT22;684;48.342;10.096;2023-09-07T15:54:55;26.80;1.00
1381;DHT22;684;48.342;10.096;2023-09-07T15:57:22;26.70;1.00
1381;DHT22;684;48.342;10.096;2023-09-07T15:59:49;26.70;1.00
1381;DHT22;684;48.342;10.096;2023-09-07T16:02:15;26.70;1.00
1381;DHT22;684;48.342;10.096;2023-09-07T16:04:42;26.60;1.00
1381;DHT22;684;48.342;10.096;2023-09-07T16:07:09;26.60;1.00
1381;DHT22;684;48.342;10.096;2023-09-07T16:09:37;26.60;1.00
1381;DHT22;684;48.342;10.096;2023-09-07T16:12:06;26.60;1.00